createdAt,value
2018-06-15T00:01:01.073Z,16.10
2018-06-15T00:03:30.715Z,17.00
2018-06-15T00:05:59.534Z,17.25
2018-06-15T00:08:28.017Z,17.87
2018-06-15T00:10:56.956Z,17.57
2018-06-15T00:13:25.720Z,16.60
2018-06-15T00:15:55.052Z,17.48
2018-06-15T00:18:23.730Z,17.73
2018-06-15T00:20:53.020Z,17.80
2018-06-15T00:23:22.246Z,18.05
2018-06-15T00:25:50.518Z,16.93
2018-06-15T00:28:19.149Z,16.15
2018-06-15T00:30:47.723Z,17.57
2018-06-15T00:33:16.053Z,16.80
2018-06-15T00:35:44.296Z,17.37
2018-06-15T00:38:12.669Z,18.40
2018-06-15T00:40:40.881Z,17.20
2018-06-15T00:43:09.104Z,16.10
2018-06-15T00:45:37.242Z,16.15
2018-06-15T00:48:05.185Z,16.42
2018-06-15T00:50:33.197Z,16.30
2018-06-15T00:53:01.200Z,16.57
2018-06-15T00:55:29.253Z,16.42
2018-06-15T00:57:57.240Z,16.30
2018-06-15T01:00:25.586Z,16.80
2018-06-15T01:02:53.719Z,16.60
2018-06-15T01:05:21.855Z,16.97
2018-06-15T01:07:50.397Z,17.30
2018-06-15T01:10:19.588Z,18.15
2018-06-15T01:12:49.261Z,16.00
2018-06-15T01:15:18.125Z,15.72
2018-06-15T01:17:48.850Z,16.10
2018-06-15T01:20:19.814Z,15.58
2018-06-15T01:22:48.610Z,16.05
2018-06-15T01:25:16.788Z,14.90
2018-06-15T01:27:45.089Z,16.37
2018-06-15T01:30:13.698Z,16.02
2018-06-15T01:32:42.466Z,16.80
2018-06-15T01:35:11.067Z,16.45
2018-06-15T01:37:39.628Z,16.37
2018-06-15T01:40:08.479Z,16.93
2018-06-15T01:42:37.444Z,15.83
2018-06-15T01:45:06.597Z,16.43
2018-06-15T01:47:35.425Z,15.90
2018-06-15T01:50:04.425Z,16.50
2018-06-15T01:52:33.224Z,15.50
2018-06-15T01:55:02.033Z,16.55
2018-06-15T01:57:31.084Z,16.90
2018-06-15T01:59:59.173Z,16.43
2018-06-15T02:02:27.189Z,15.80
2018-06-15T02:04:55.241Z,15.80
2018-06-15T02:07:23.593Z,15.10
2018-06-15T02:09:51.854Z,15.70
2018-06-15T02:12:20.334Z,14.83
2018-06-15T02:14:48.659Z,15.98
2018-06-15T02:17:17.586Z,15.03
2018-06-15T02:19:46.170Z,14.50
2018-06-15T02:22:14.919Z,15.50
2018-06-15T02:24:43.085Z,15.38
2018-06-15T02:27:11.381Z,15.15
2018-06-15T02:29:39.324Z,15.10
2018-06-15T02:32:08.524Z,16.12
2018-06-15T02:34:38.801Z,15.70
2018-06-15T02:37:07.625Z,15.70
2018-06-15T02:39:37.742Z,15.40
2018-06-15T02:42:06.521Z,14.20
2018-06-15T02:44:36.634Z,16.07
2018-06-15T02:47:06.387Z,15.40
2018-06-15T02:49:34.805Z,14.93
2018-06-15T02:52:05.439Z,15.38
2018-06-15T02:54:33.907Z,15.03
2018-06-15T02:57:02.024Z,16.50
2018-06-15T02:59:30.357Z,16.37
2018-06-15T03:01:58.684Z,15.70
2018-06-15T03:04:27.094Z,15.38
2018-06-15T03:06:55.758Z,15.67
2018-06-15T03:09:25.694Z,15.90
2018-06-15T03:11:54.126Z,14.80
2018-06-15T03:14:22.236Z,15.05
2018-06-15T03:16:50.416Z,14.95
2018-06-15T03:19:18.744Z,15.25
2018-06-15T03:21:46.879Z,14.78
2018-06-15T03:24:15.153Z,14.95
2018-06-15T03:26:43.837Z,14.60
2018-06-15T03:29:12.059Z,14.13
2018-06-15T03:31:40.092Z,15.03
2018-06-15T03:34:08.081Z,15.03
2018-06-15T03:36:36.269Z,15.20
2018-06-15T03:39:06.630Z,14.50
2018-06-15T03:41:34.777Z,15.83
2018-06-15T03:44:03.076Z,15.98
2018-06-15T03:46:31.436Z,16.43
2018-06-15T03:48:59.656Z,16.62
2018-06-15T03:51:28.009Z,17.87
2018-06-15T03:53:56.116Z,16.42
2018-06-15T03:56:24.156Z,17.02
2018-06-15T03:58:52.185Z,17.55
2018-06-15T04:01:20.224Z,17.35
2018-06-15T04:03:48.321Z,17.15
2018-06-15T04:06:16.310Z,15.75
2018-06-15T04:08:44.305Z,16.50
2018-06-15T04:11:13.001Z,15.60
2018-06-15T04:13:41.560Z,14.47
2018-06-15T04:16:09.788Z,15.20
2018-06-15T04:18:37.995Z,16.67
2018-06-15T04:21:06.273Z,15.48
2018-06-15T04:23:34.335Z,15.68
2018-06-15T04:26:02.607Z,15.90
2018-06-15T04:28:31.074Z,16.20
2018-06-15T04:30:59.480Z,16.17
2018-06-15T04:33:27.848Z,16.80
2018-06-15T04:35:56.384Z,16.67
2018-06-15T04:38:24.692Z,16.80
2018-06-15T04:40:53.498Z,16.15
2018-06-15T04:43:21.904Z,15.95
2018-06-15T04:45:50.249Z,15.60
2018-06-15T04:48:18.341Z,15.05
2018-06-15T04:50:46.804Z,15.70
2018-06-15T04:53:15.295Z,15.90
2018-06-15T04:55:43.528Z,16.20
2018-06-15T04:58:11.548Z,16.05
2018-06-15T05:00:39.661Z,17.57
2018-06-15T05:03:07.783Z,15.90
2018-06-15T05:05:36.317Z,15.97
2018-06-15T05:08:04.262Z,16.97
2018-06-15T05:10:32.554Z,16.93
2018-06-15T05:13:01.434Z,16.17
2018-06-15T05:15:30.025Z,16.07
2018-06-15T05:17:58.873Z,16.23
2018-06-15T05:20:27.683Z,16.32
2018-06-15T05:22:56.683Z,15.90
2018-06-15T05:25:24.704Z,15.10
2018-06-15T05:27:52.955Z,15.20
2018-06-15T05:30:21.183Z,14.83
2018-06-15T05:32:49.356Z,15.20
2018-06-15T05:35:17.533Z,14.67
2018-06-15T05:37:45.397Z,15.90
2018-06-15T05:40:13.486Z,15.35
2018-06-15T05:42:41.711Z,15.40
2018-06-15T05:45:09.919Z,14.33
2018-06-15T05:47:38.129Z,14.33
2018-06-15T05:50:06.188Z,13.50
2018-06-15T05:52:34.176Z,12.95
2018-06-15T05:55:02.246Z,12.37
2018-06-15T05:57:30.210Z,12.03
2018-06-15T05:59:58.495Z,11.60
2018-06-15T06:02:27.037Z,13.00
2018-06-15T06:04:55.254Z,13.32
2018-06-15T06:07:23.589Z,12.07
2018-06-15T06:09:51.844Z,13.50
2018-06-15T06:12:19.861Z,11.97
2018-06-15T06:14:47.814Z,11.73
2018-06-15T06:17:16.121Z,11.05
2018-06-15T06:19:44.460Z,10.00
2018-06-15T06:22:12.397Z,9.43
2018-06-15T06:24:40.320Z,10.00
2018-06-15T06:28:29.076Z,11.20
2018-06-15T06:30:57.146Z,9.70
2018-06-15T06:33:25.280Z,10.00
2018-06-15T06:35:53.476Z,10.08
2018-06-15T06:38:21.463Z,8.80
2018-06-15T06:40:49.423Z,8.70
2018-06-15T06:43:17.445Z,9.20
2018-06-15T06:45:45.389Z,8.30
2018-06-15T06:48:13.377Z,8.70
2018-06-15T06:50:41.387Z,8.17
2018-06-15T06:53:09.433Z,7.33
2018-06-15T06:55:37.392Z,5.80
2018-06-15T06:58:05.331Z,6.10
2018-06-15T07:00:33.538Z,5.40
2018-06-15T07:03:01.880Z,6.03
2018-06-15T07:05:29.960Z,6.50
2018-06-15T07:07:58.081Z,5.85
2018-06-15T07:10:26.376Z,5.40
2018-06-15T07:12:54.463Z,5.85
2018-06-15T07:15:22.467Z,4.85
2018-06-15T07:17:50.544Z,4.92
2018-06-15T07:20:18.496Z,5.55
2018-06-15T07:22:46.467Z,5.67
2018-06-15T07:25:14.501Z,5.10
2018-06-15T07:27:42.485Z,6.17
2018-06-15T07:30:10.425Z,6.03
2018-06-15T07:32:38.694Z,5.15
2018-06-15T07:35:06.661Z,4.90
2018-06-15T07:37:34.693Z,4.00
2018-06-15T07:40:02.753Z,4.47
2018-06-15T07:42:30.777Z,4.03
2018-06-15T07:44:58.718Z,4.10
2018-06-15T07:47:27.225Z,4.40
2018-06-15T07:49:55.167Z,4.50
2018-06-15T07:52:23.151Z,4.00
2018-06-15T07:54:51.316Z,3.85
2018-06-15T07:57:19.278Z,3.83
2018-06-15T07:59:47.473Z,3.72
2018-06-15T08:02:15.753Z,3.80
2018-06-15T08:04:43.683Z,3.70
2018-06-15T08:07:11.636Z,3.35
2018-06-15T08:09:39.812Z,3.80
2018-06-15T08:12:07.803Z,4.00
2018-06-15T08:14:35.805Z,3.35
2018-06-15T08:17:03.992Z,3.60
2018-06-15T08:19:32.209Z,3.80
2018-06-15T08:22:00.740Z,3.27
2018-06-15T08:24:28.968Z,3.60
2018-06-15T08:26:57.025Z,3.08
2018-06-15T08:29:25.014Z,3.35
2018-06-15T08:31:53.223Z,3.30
2018-06-15T08:34:21.554Z,2.80
2018-06-15T08:36:49.802Z,3.10
2018-06-15T08:39:17.687Z,3.40
2018-06-15T08:41:45.953Z,2.93
2018-06-15T08:44:14.229Z,3.35
2018-06-15T08:46:42.544Z,3.50
2018-06-15T08:49:10.562Z,2.98
2018-06-15T08:51:38.538Z,3.00
2018-06-15T08:54:06.430Z,3.00
2018-06-15T08:56:34.829Z,3.42
2018-06-15T08:59:03.062Z,2.60
2018-06-15T09:01:31.070Z,3.02
2018-06-15T09:03:59.016Z,2.50
2018-06-15T09:06:27.377Z,2.47
2018-06-15T09:08:55.676Z,3.00
2018-06-15T09:11:24.234Z,3.30
2018-06-15T09:13:52.566Z,2.80
2018-06-15T09:16:20.512Z,2.67
2018-06-15T09:18:48.725Z,3.30
2018-06-15T09:21:16.757Z,3.00
2018-06-15T09:23:44.687Z,2.67
2018-06-15T09:26:12.975Z,2.30
2018-06-15T09:28:40.930Z,2.87
2018-06-15T09:31:09.216Z,3.22
2018-06-15T09:33:37.202Z,2.90
2018-06-15T09:36:05.242Z,2.70
2018-06-15T09:38:33.371Z,3.00
2018-06-15T09:41:01.714Z,2.70
2018-06-15T09:43:29.759Z,2.30
2018-06-15T09:45:58.364Z,2.50
2018-06-15T09:48:26.628Z,2.60
2018-06-15T09:50:54.669Z,2.50
2018-06-15T09:53:22.881Z,2.20
2018-06-15T09:55:50.952Z,2.77
2018-06-15T09:58:18.914Z,2.50
2018-06-15T10:00:52.942Z,2.40
2018-06-15T10:03:21.696Z,2.15
2018-06-15T10:05:49.648Z,1.90
2018-06-15T10:08:17.739Z,2.27
2018-06-15T10:10:45.686Z,2.20
2018-06-15T10:13:13.916Z,2.15
2018-06-15T10:15:42.041Z,2.20
2018-06-15T10:18:10.008Z,2.10
2018-06-15T10:20:38.056Z,2.50
2018-06-15T10:23:06.001Z,2.52
2018-06-15T10:25:34.240Z,2.30
2018-06-15T10:28:02.969Z,2.20
2018-06-15T10:30:30.937Z,2.50
2018-06-15T10:32:59.124Z,2.17
2018-06-15T10:35:27.062Z,2.55
2018-06-15T10:37:55.738Z,2.47
2018-06-15T10:40:23.840Z,2.45
2018-06-15T10:42:51.819Z,2.25
2018-06-15T10:45:19.815Z,2.15
2018-06-15T10:47:48.295Z,2.00
2018-06-15T10:50:16.739Z,2.40
2018-06-15T10:52:44.696Z,2.72
2018-06-15T10:55:12.676Z,3.12
2018-06-15T10:57:40.644Z,3.37
2018-06-15T11:00:08.584Z,2.20
2018-06-15T11:02:36.673Z,2.60
2018-06-15T11:05:04.624Z,2.23
2018-06-15T11:07:32.602Z,2.20
2018-06-15T11:10:00.580Z,2.20
2018-06-15T11:12:28.773Z,2.20
2018-06-15T11:14:56.720Z,2.70
2018-06-15T11:17:24.698Z,2.40
2018-06-15T11:19:52.689Z,2.42
2018-06-15T11:22:20.628Z,2.45
2018-06-15T11:24:48.570Z,2.70
2018-06-15T11:27:16.512Z,2.30
2018-06-15T11:29:44.477Z,2.58
2018-06-15T11:32:12.737Z,2.50
2018-06-15T11:34:40.689Z,2.60
2018-06-15T11:37:08.828Z,2.30
2018-06-15T11:39:37.068Z,2.27
2018-06-15T11:42:04.984Z,2.10
2018-06-15T11:44:33.042Z,2.40
2018-06-15T11:47:01.356Z,2.00
2018-06-15T11:49:29.359Z,2.50
2018-06-15T11:51:57.511Z,2.42
2018-06-15T11:54:25.473Z,2.08
2018-06-15T11:56:53.733Z,2.00
2018-06-15T11:59:21.682Z,2.30
2018-06-15T12:01:49.661Z,2.30
2018-06-15T12:04:17.965Z,2.05
2018-06-15T12:06:45.916Z,2.00
2018-06-15T12:09:14.162Z,2.35
2018-06-15T12:11:42.097Z,2.10
2018-06-15T12:14:10.136Z,2.40
2018-06-15T12:16:38.343Z,1.90
2018-06-15T12:19:06.607Z,2.10
2018-06-15T12:21:34.563Z,1.90
2018-06-15T12:24:02.533Z,2.00
2018-06-15T12:26:30.412Z,2.20
2018-06-15T12:28:58.349Z,2.20
2018-06-15T12:31:26.713Z,1.90
2018-06-15T12:33:54.617Z,2.05
2018-06-15T12:36:22.545Z,2.00
2018-06-15T12:38:50.889Z,1.80
2018-06-15T12:41:18.812Z,2.10
2018-06-15T12:43:47.072Z,2.02
2018-06-15T12:46:15.042Z,2.30
2018-06-15T12:48:43.012Z,2.20
2018-06-15T12:51:11.290Z,2.08
2018-06-15T12:53:39.247Z,2.20
2018-06-15T12:56:07.702Z,1.90
2018-06-15T12:58:35.680Z,6.08
2018-06-15T13:01:03.653Z,2.20
2018-06-15T13:03:31.916Z,2.00
2018-06-15T13:05:59.989Z,3.10
2018-06-15T13:08:28.350Z,2.40
2018-06-15T13:10:56.517Z,2.17
2018-06-15T13:13:24.722Z,1.83
2018-06-15T13:15:52.686Z,2.00
2018-06-15T13:18:20.919Z,1.90
2018-06-15T13:20:48.906Z,1.90
2018-06-15T13:23:16.892Z,2.27
2018-06-15T13:25:44.870Z,3.40
2018-06-15T13:28:12.782Z,2.70
2018-06-15T13:30:40.746Z,3.13
2018-06-15T13:33:09.107Z,2.92
2018-06-15T13:35:38.352Z,2.10
2018-06-15T13:38:06.727Z,1.85
2018-06-15T13:40:37.769Z,2.37
2018-06-15T13:43:06.435Z,2.80
2018-06-15T13:45:34.508Z,1.97
2018-06-15T13:48:02.497Z,1.80
2018-06-15T13:50:30.661Z,2.00
2018-06-15T13:52:58.889Z,2.10
2018-06-15T13:55:27.264Z,2.87
2018-06-15T13:57:55.212Z,2.40
2018-06-15T14:00:23.237Z,3.67
2018-06-15T14:02:51.480Z,2.20
2018-06-15T14:05:19.474Z,2.50
2018-06-15T14:07:47.959Z,2.10
2018-06-15T14:10:16.074Z,2.80
2018-06-15T14:12:44.118Z,2.40
2018-06-15T14:15:12.334Z,2.80
2018-06-15T14:17:40.932Z,1.87
2018-06-15T14:20:09.212Z,2.50
2018-06-15T14:22:37.492Z,1.65
2018-06-15T14:25:05.461Z,2.30
2018-06-15T14:27:33.629Z,2.20
2018-06-15T14:30:01.642Z,1.98
2018-06-15T14:32:29.886Z,1.98
2018-06-15T14:34:58.157Z,1.90
2018-06-15T14:37:26.052Z,2.20
2018-06-15T14:39:54.070Z,2.00
2018-06-15T14:42:22.249Z,1.90
2018-06-15T14:44:50.223Z,2.50
2018-06-15T14:47:18.246Z,2.00
2018-06-15T14:49:46.977Z,1.90
2018-06-15T14:52:15.015Z,1.80
2018-06-15T14:54:43.199Z,2.70
2018-06-15T14:57:11.153Z,2.30
2018-06-15T14:59:39.447Z,2.20
2018-06-15T15:02:07.404Z,2.10
2018-06-15T15:04:35.437Z,1.90
2018-06-15T15:07:03.329Z,2.30
2018-06-15T15:09:31.296Z,2.37
2018-06-15T15:11:59.548Z,2.00
2018-06-15T15:14:27.477Z,2.10
2018-06-15T15:16:55.995Z,2.50
2018-06-15T15:19:24.481Z,1.90
2018-06-15T15:21:52.401Z,1.90
2018-06-15T15:24:20.629Z,1.90
2018-06-15T15:26:48.567Z,1.70
2018-06-15T15:29:16.593Z,2.20
2018-06-15T15:31:45.042Z,2.50
2018-06-15T15:34:13.061Z,1.82
2018-06-15T15:36:41.385Z,1.97
2018-06-15T15:39:10.268Z,2.00
2018-06-15T15:41:38.331Z,2.40
2018-06-15T15:44:06.395Z,1.70
2018-06-15T15:46:34.409Z,1.70
2018-06-15T15:49:02.405Z,2.00
2018-06-15T15:51:30.668Z,1.72
2018-06-15T15:53:59.193Z,1.67
2018-06-15T15:56:27.708Z,1.90
2018-06-15T15:58:55.880Z,2.00
2018-06-15T16:01:23.919Z,2.05
2018-06-15T16:03:52.058Z,1.72
2018-06-15T16:06:20.037Z,2.00
2018-06-15T16:08:48.032Z,1.90
2018-06-15T16:11:16.001Z,1.62
2018-06-15T16:13:43.897Z,1.95
2018-06-15T16:16:12.081Z,1.80
2018-06-15T16:18:40.197Z,1.70
2018-06-15T16:21:08.146Z,1.80
2018-06-15T16:23:36.400Z,1.80
2018-06-15T16:26:05.070Z,2.20
2018-06-15T16:28:33.020Z,1.70
2018-06-15T16:31:01.021Z,1.70
2018-06-15T16:33:29.014Z,1.80
2018-06-15T16:35:57.173Z,1.98
2018-06-15T16:38:25.430Z,1.90
2018-06-15T16:40:53.638Z,1.40
2018-06-15T16:43:21.609Z,1.90
2018-06-15T16:45:50.369Z,1.90
2018-06-15T16:48:18.757Z,2.17
2018-06-15T16:50:46.997Z,1.80
2018-06-15T16:53:15.040Z,1.80
2018-06-15T16:55:43.020Z,1.70
2018-06-15T16:58:11.260Z,1.60
2018-06-15T17:00:39.520Z,1.70
2018-06-15T17:03:07.780Z,1.75
2018-06-15T17:05:35.737Z,1.80
2018-06-15T17:08:03.652Z,2.00
2018-06-15T17:10:31.856Z,2.30
2018-06-15T17:12:59.964Z,2.58
2018-06-15T17:15:28.174Z,1.85
2018-06-15T17:17:56.474Z,2.47
2018-06-15T17:20:24.447Z,2.90
2018-06-15T17:22:53.033Z,2.40
2018-06-15T17:25:20.961Z,2.27
2018-06-15T17:27:48.928Z,2.27
2018-06-15T17:30:16.922Z,2.95
2018-06-15T17:32:45.223Z,2.55
2018-06-15T17:35:13.156Z,2.80
2018-06-15T17:37:41.381Z,1.98
2018-06-15T17:40:09.337Z,1.83
2018-06-15T17:42:37.840Z,1.90
2018-06-15T17:45:06.089Z,1.75
2018-06-15T17:47:34.055Z,1.90
2018-06-15T17:50:02.340Z,2.00
2018-06-15T17:52:30.781Z,2.10
2018-06-15T17:54:59.649Z,1.62
2018-06-15T17:57:28.274Z,1.60
2018-06-15T17:59:56.580Z,2.00
2018-06-15T18:02:24.534Z,2.40
2018-06-15T18:04:52.497Z,2.30
2018-06-15T18:07:21.061Z,2.10
2018-06-15T18:09:49.224Z,2.10
2018-06-15T18:12:17.455Z,2.20
2018-06-15T18:14:45.616Z,1.90
2018-06-15T18:17:14.344Z,2.40
2018-06-15T18:19:42.549Z,2.30
2018-06-15T18:22:10.960Z,2.40
2018-06-15T18:24:39.309Z,2.00
2018-06-15T18:27:07.702Z,1.20
2018-06-15T18:29:35.932Z,1.80
2018-06-15T18:32:03.840Z,1.90
2018-06-15T18:34:32.093Z,1.70
2018-06-15T18:37:00.064Z,1.90
2018-06-15T18:39:28.334Z,2.02
2018-06-15T18:41:56.707Z,1.70
2018-06-15T18:44:24.693Z,2.95
2018-06-15T18:46:52.698Z,3.00
2018-06-15T18:49:20.946Z,4.00
2018-06-15T18:51:48.876Z,2.80
2018-06-15T18:54:16.825Z,1.95
2018-06-15T18:56:44.795Z,2.00
2018-06-15T18:59:12.760Z,1.70
2018-06-15T19:01:41.068Z,1.50
2018-06-15T19:04:09.358Z,1.67
2018-06-15T19:06:37.575Z,1.90
2018-06-15T19:09:06.689Z,1.80
2018-06-15T19:11:34.616Z,1.70
2018-06-15T19:14:02.897Z,2.00
2018-06-15T19:16:30.863Z,2.10
2018-06-15T19:18:58.827Z,2.50
2018-06-15T19:21:27.064Z,2.25
2018-06-15T19:23:55.572Z,2.70
2018-06-15T19:26:23.849Z,3.20
2018-06-15T19:28:52.263Z,1.90
2018-06-15T19:31:20.089Z,1.60
2018-06-15T19:33:48.064Z,1.40
2018-06-15T19:36:16.049Z,1.80
2018-06-15T19:38:43.978Z,1.50
2018-06-15T19:41:11.954Z,1.50
2018-06-15T19:43:40.281Z,1.60
2018-06-15T19:46:08.285Z,1.60
2018-06-15T19:48:36.516Z,2.80
2018-06-15T19:51:04.584Z,3.95
2018-06-15T19:53:32.578Z,2.80
2018-06-15T19:56:00.533Z,3.00
2018-06-15T19:58:28.448Z,2.70
2018-06-15T20:00:56.437Z,1.82
2018-06-15T20:03:24.402Z,2.10
2018-06-15T20:05:52.360Z,1.90
2018-06-15T20:08:20.308Z,1.60
2018-06-15T20:10:48.513Z,1.75
2018-06-15T20:13:16.789Z,1.60
2018-06-15T20:15:44.760Z,1.30
2018-06-15T20:18:12.765Z,1.60
2018-06-15T20:20:40.786Z,2.98
2018-06-15T20:23:08.897Z,4.03
2018-06-15T20:25:37.145Z,4.20
2018-06-15T20:28:05.064Z,3.60
2018-06-15T20:30:33.333Z,1.55
2018-06-15T20:33:01.257Z,1.80
2018-06-15T20:35:29.210Z,1.60
2018-06-15T20:37:57.157Z,1.67
2018-06-15T20:40:25.137Z,2.08
2018-06-15T20:42:53.089Z,1.40
2018-06-15T20:45:21.049Z,1.70
2018-06-15T20:47:49.072Z,1.50
2018-06-15T20:50:17.049Z,1.10
2018-06-15T20:52:45.343Z,1.30
2018-06-15T20:55:13.549Z,1.30
2018-06-15T20:57:41.491Z,1.00
2018-06-15T21:00:09.534Z,2.20
2018-06-15T21:02:37.833Z,1.57
2018-06-15T21:05:06.495Z,1.20
2018-06-15T21:07:34.725Z,3.37
2018-06-15T21:10:02.731Z,1.85
2018-06-15T21:12:30.677Z,1.60
2018-06-15T21:14:59.310Z,1.72
2018-06-15T21:17:27.177Z,1.62
2018-06-15T21:19:55.697Z,1.42
2018-06-15T21:22:23.778Z,1.30
2018-06-15T21:24:51.978Z,1.30
2018-06-15T21:27:20.223Z,1.50
2018-06-15T21:29:48.171Z,1.70
2018-06-15T21:32:16.128Z,1.60
2018-06-15T21:34:44.293Z,1.45
2018-06-15T21:37:12.504Z,1.20
2018-06-15T21:39:41.000Z,1.50
2018-06-15T21:42:08.976Z,1.40
2018-06-15T21:44:37.237Z,1.35
2018-06-15T21:47:05.297Z,1.67
2018-06-15T21:49:33.485Z,1.60
2018-06-15T21:52:01.449Z,1.50
2018-06-15T21:54:29.360Z,1.30
2018-06-15T21:56:57.465Z,1.32
2018-06-15T21:59:25.972Z,1.30
2018-06-15T22:01:53.938Z,1.50
2018-06-15T22:04:22.115Z,1.30
2018-06-15T22:06:50.050Z,1.62
2018-06-15T22:09:18.260Z,1.70
2018-06-15T22:11:46.844Z,1.72
2018-06-15T22:14:16.772Z,1.92
2018-06-15T22:16:50.862Z,1.60
2018-06-15T22:19:21.628Z,1.40
2018-06-15T22:21:50.361Z,1.90
2018-06-15T22:24:18.248Z,1.37
2018-06-15T22:26:46.649Z,1.42
2018-06-15T22:29:14.860Z,1.60
2018-06-15T22:31:43.102Z,1.30
2018-06-15T22:34:11.107Z,1.40
2018-06-15T22:36:39.754Z,1.37
2018-06-15T22:39:08.953Z,1.50
2018-06-15T22:41:36.926Z,1.62
2018-06-15T22:44:04.864Z,1.32
2018-06-15T22:46:32.833Z,1.60
2018-06-15T22:49:01.833Z,1.30
2018-06-15T22:51:30.246Z,1.65
2018-06-15T22:53:58.441Z,2.03
2018-06-15T22:56:26.432Z,1.90
2018-06-15T22:58:54.417Z,2.25
2018-06-15T23:01:22.455Z,2.70
2018-06-15T23:03:50.670Z,1.52
2018-06-15T23:06:18.674Z,1.82
2018-06-15T23:08:46.915Z,1.72
2018-06-15T23:11:15.122Z,1.80
2018-06-15T23:13:43.041Z,1.30
2018-06-15T23:16:11.052Z,1.80
2018-06-15T23:18:39.001Z,1.55
2018-06-15T23:21:06.963Z,2.00
2018-06-15T23:23:34.888Z,1.60
2018-06-15T23:26:02.823Z,2.02
2018-06-15T23:28:31.213Z,2.60
2018-06-15T23:30:59.793Z,2.40
2018-06-15T23:33:28.022Z,2.20
2018-06-15T23:35:56.013Z,2.00
2018-06-15T23:38:24.001Z,1.70
2018-06-15T23:40:51.988Z,1.70
2018-06-15T23:43:20.449Z,2.20
2018-06-15T23:45:48.613Z,1.70
2018-06-15T23:48:16.642Z,1.90
2018-06-15T23:50:44.597Z,2.40
2018-06-15T23:53:12.567Z,1.90
2018-06-15T23:55:40.541Z,2.00
2018-06-15T23:58:08.841Z,2.10
